Terminal Aerodrome Forecast
Issued by NWS

Home | Current Version | Previous Version | Text Only | Print | Product List | Glossary On
Versions: 1 2 3 4 5 6 7 8 9 10 11 12
000
FTUS45 KFGZ 300542
TAFPGA
TAF
KPGA 300542Z 3006/3106 VRB05KT P6SM FEW130 SCT250
      TEMPO 3006/3008 20011G20KT
     FM301800 07012KT P6SM SCT100
     FM310200 VRB05KT P6SM FEW130 SCT250=

USA.gov is the U.S. government's official web portal to all federal, state and local government web resources and services.